createdAt,value
2022-07-30T00:00:27.047Z,100979.38
2022-07-30T00:02:57.142Z,100980.59
2022-07-30T00:05:24.680Z,100982.50
2022-07-30T00:07:52.220Z,100992.63
2022-07-30T00:10:20.794Z,100994.41
2022-07-30T00:12:50.355Z,100985.75
2022-07-30T00:15:20.089Z,100991.06
2022-07-30T00:17:49.344Z,100984.88
2022-07-30T00:20:18.519Z,100993.16
2022-07-30T00:22:47.053Z,100992.41
2022-07-30T00:25:14.742Z,100985.56
2022-07-30T00:27:42.992Z,100986.56
2022-07-30T00:30:11.751Z,100991.97
2022-07-30T00:32:39.823Z,100991.59
2022-07-30T00:35:10.075Z,100976.97
2022-07-30T00:37:37.656Z,100975.81
2022-07-30T00:40:07.523Z,100970.47
2022-07-30T00:42:42.320Z,100970.16
2022-07-30T00:45:10.332Z,100978.41
2022-07-30T00:47:38.332Z,100972.47
2022-07-30T00:50:08.355Z,100970.81
2022-07-30T00:52:40.918Z,100967.16
2022-07-30T00:55:09.426Z,100965.53
2022-07-30T00:57:36.895Z,100968.09
2022-07-30T01:00:07.544Z,100966.84
2022-07-30T01:02:36.622Z,100965.78
2022-07-30T01:05:05.163Z,100963.63
2022-07-30T01:07:33.401Z,100962.53
2022-07-30T01:10:01.852Z,100974.66
2022-07-30T01:12:29.456Z,100965.78
2022-07-30T01:15:03.419Z,100967.56
2022-07-30T01:17:31.034Z,100963.66
2022-07-30T01:20:08.941Z,100961.06
2022-07-30T01:22:47.872Z,100965.41
2022-07-30T01:25:17.813Z,100971.47
2022-07-30T01:28:11.678Z,100971.16
2022-07-30T01:30:41.233Z,100970.09
2022-07-30T01:33:11.037Z,100967.06
2022-07-30T01:35:42.086Z,100971.31
2022-07-30T01:38:11.476Z,100969.63
2022-07-30T01:40:38.899Z,100963.41
2022-07-30T01:43:06.697Z,100963.47
2022-07-30T01:45:41.462Z,100964.44
2022-07-30T01:48:14.141Z,100958.41
2022-07-30T01:50:46.654Z,100963.78
2022-07-30T01:53:15.227Z,100967.66
2022-07-30T01:55:43.321Z,100977.09
2022-07-30T01:58:12.015Z,100980.34
2022-07-30T02:00:45.179Z,100981.09
2022-07-30T02:03:12.771Z,100976.78
2022-07-30T02:05:41.013Z,100983.66
2022-07-30T02:08:28.144Z,100975.19
2022-07-30T02:11:01.993Z,100975.56
2022-07-30T02:13:29.839Z,100972.47
2022-07-30T02:15:59.382Z,100976.97
2022-07-30T02:18:40.678Z,100982.28
2022-07-30T02:21:13.082Z,100973.22
2022-07-30T02:23:43.509Z,100974.44
2022-07-30T02:26:14.686Z,100976.38
2022-07-30T02:28:42.352Z,100981.50
2022-07-30T02:31:17.271Z,100976.88
2022-07-30T02:33:48.964Z,100976.03
2022-07-30T02:36:19.076Z,100986.09
2022-07-30T02:38:47.865Z,100984.56
2022-07-30T02:41:15.501Z,100992.34
2022-07-30T02:43:43.811Z,100987.22
2022-07-30T02:46:11.720Z,100988.13
2022-07-30T02:49:03.401Z,100987.75
2022-07-30T02:51:31.905Z,100991.03
2022-07-30T02:53:59.293Z,100992.59
2022-07-30T02:56:28.244Z,100984.56
2022-07-30T02:58:56.550Z,100986.75
2022-07-30T03:01:26.535Z,100994.50
2022-07-30T03:03:54.358Z,101002.84
2022-07-30T03:06:23.698Z,101000.91
2022-07-30T03:08:51.339Z,101001.59
2022-07-30T03:11:19.031Z,100995.81
2022-07-30T03:13:48.521Z,101000.06
2022-07-30T03:16:16.067Z,101002.28
2022-07-30T03:18:44.167Z,100999.16
2022-07-30T03:21:15.739Z,101007.38
2022-07-30T03:23:43.353Z,101004.25
2022-07-30T03:26:10.938Z,101003.19
2022-07-30T03:28:40.345Z,101005.00
2022-07-30T03:31:08.005Z,100999.81
2022-07-30T03:33:38.818Z,101006.00
2022-07-30T03:36:07.406Z,100995.69
2022-07-30T03:38:36.795Z,100999.38
2022-07-30T03:41:04.829Z,100992.59
2022-07-30T03:43:35.424Z,100992.41
2022-07-30T03:46:03.447Z,100997.97
2022-07-30T03:48:35.270Z,101000.41
2022-07-30T03:51:03.975Z,101000.75
2022-07-30T03:53:34.878Z,100996.50
2022-07-30T03:56:20.931Z,100991.50
2022-07-30T03:59:28.014Z,100998.22
2022-07-30T04:01:55.687Z,100993.59
2022-07-30T04:04:53.983Z,100997.56
2022-07-30T04:07:22.108Z,100987.53
2022-07-30T04:09:51.627Z,100989.00
2022-07-30T04:12:41.241Z,100980.41
2022-07-30T04:16:05.826Z,100991.06
2022-07-30T04:17:59.172Z,100990.53
2022-07-30T04:20:29.827Z,100986.25
2022-07-30T04:22:57.678Z,100988.44
2022-07-30T04:25:25.529Z,100982.72
2022-07-30T04:28:02.861Z,100991.47
2022-07-30T04:30:33.467Z,100983.31
2022-07-30T04:33:05.391Z,100988.94
2022-07-30T04:35:51.579Z,100992.75
2022-07-30T04:38:39.620Z,100993.28
2022-07-30T04:41:07.713Z,100986.38
2022-07-30T04:44:10.871Z,100991.63
2022-07-30T04:46:46.782Z,100992.97
2022-07-30T04:49:14.440Z,100988.75
2022-07-30T04:51:41.905Z,100993.34
2022-07-30T04:54:15.783Z,100985.34
2022-07-30T04:57:01.233Z,100994.66
2022-07-30T04:59:30.361Z,100989.50
2022-07-30T05:01:58.881Z,100992.72
2022-07-30T05:04:26.827Z,100992.94
2022-07-30T05:06:54.340Z,100988.56
2022-07-30T05:09:21.964Z,100991.50
2022-07-30T05:11:50.437Z,100991.88
2022-07-30T05:14:18.210Z,101002.81
2022-07-30T05:16:48.844Z,100997.34
2022-07-30T05:19:18.982Z,101001.44
2022-07-30T05:21:47.189Z,100992.56
2022-07-30T05:24:14.677Z,101000.13
2022-07-30T05:26:51.381Z,100993.22
2022-07-30T05:29:21.667Z,101001.50
2022-07-30T05:31:55.353Z,100990.41
2022-07-30T05:34:30.679Z,100994.31
2022-07-30T05:36:58.628Z,100992.44
2022-07-30T05:39:26.768Z,100993.72
2022-07-30T05:42:34.027Z,100989.22
2022-07-30T05:45:02.478Z,100990.38
2022-07-30T05:47:31.111Z,100989.25
2022-07-30T05:50:04.215Z,100991.44
2022-07-30T05:52:32.820Z,100991.25
2022-07-30T05:55:09.403Z,100982.81
2022-07-30T05:57:53.164Z,100993.31
2022-07-30T06:00:21.209Z,100983.81
2022-07-30T06:02:53.403Z,100983.31
2022-07-30T06:05:26.691Z,100988.66
2022-07-30T06:07:58.292Z,100986.84
2022-07-30T06:10:29.046Z,100978.97
2022-07-30T06:12:56.859Z,100981.97
2022-07-30T06:15:26.314Z,100976.63
2022-07-30T06:18:02.220Z,100974.41
2022-07-30T06:21:02.973Z,100978.56
2022-07-30T06:24:03.058Z,100969.31
2022-07-30T06:26:37.827Z,100975.09
2022-07-30T06:29:06.650Z,100960.94
2022-07-30T06:31:34.547Z,100963.28
2022-07-30T06:34:04.142Z,100959.94
2022-07-30T06:36:37.810Z,100957.91
2022-07-30T06:39:10.184Z,100963.16
2022-07-30T06:42:03.980Z,100957.63
2022-07-30T06:44:52.485Z,100953.97
2022-07-30T06:47:29.397Z,100949.94
2022-07-30T06:49:58.655Z,100959.81
2022-07-30T06:52:28.799Z,100952.72
2022-07-30T06:54:56.748Z,100948.44
2022-07-30T06:57:49.518Z,100949.66
2022-07-30T07:00:35.977Z,100945.38
2022-07-30T07:03:11.782Z,100948.69
2022-07-30T07:05:39.662Z,100943.53
2022-07-30T07:08:09.204Z,100947.47
2022-07-30T07:10:40.472Z,100956.03
2022-07-30T07:13:15.842Z,100944.63
2022-07-30T07:15:46.035Z,100943.50
2022-07-30T07:18:25.170Z,100948.03
2022-07-30T07:21:01.417Z,100940.09
2022-07-30T07:23:41.645Z,100932.88
2022-07-30T07:26:32.767Z,100941.16
2022-07-30T07:29:04.971Z,100939.66
2022-07-30T07:32:05.444Z,100932.38
2022-07-30T07:34:23.676Z,100935.25
2022-07-30T07:36:51.095Z,100934.97
2022-07-30T07:39:18.707Z,100936.69
2022-07-30T07:41:48.440Z,100934.66
2022-07-30T07:44:19.918Z,100934.66
2022-07-30T07:46:47.518Z,100941.66
2022-07-30T07:49:15.214Z,100940.84
2022-07-30T07:51:48.706Z,100939.13
2022-07-30T07:54:22.299Z,100925.47
2022-07-30T07:56:57.593Z,100932.09
2022-07-30T07:59:40.741Z,100927.19
2022-07-30T08:02:26.839Z,100933.69
2022-07-30T08:05:04.263Z,100929.28
2022-07-30T08:07:47.737Z,100927.22
2022-07-30T08:10:33.730Z,100931.28
2022-07-30T08:13:48.440Z,100923.91
2022-07-30T08:16:18.839Z,100923.06
2022-07-30T08:19:06.283Z,100920.88
2022-07-30T08:21:38.832Z,100922.50
2022-07-30T08:24:09.344Z,100909.72
2022-07-30T08:26:36.878Z,100922.81
2022-07-30T08:29:04.791Z,100912.44
2022-07-30T08:31:33.850Z,100921.38
2022-07-30T08:34:01.650Z,100915.25
2022-07-30T08:36:29.330Z,100909.16
2022-07-30T08:38:59.558Z,100908.59
2022-07-30T08:41:27.114Z,100909.06
2022-07-30T08:43:54.722Z,100899.13
2022-07-30T08:46:24.929Z,100905.91
2022-07-30T08:49:00.664Z,100904.19
2022-07-30T08:51:37.277Z,100898.78
2022-07-30T08:54:19.083Z,100895.56
2022-07-30T08:56:47.470Z,100902.09
2022-07-30T08:59:15.119Z,100887.88
2022-07-30T09:01:42.669Z,100889.16
2022-07-30T09:04:10.542Z,100889.69
2022-07-30T09:06:41.023Z,100895.56
2022-07-30T09:09:10.795Z,100887.81
2022-07-30T09:11:42.853Z,100895.03
2022-07-30T09:14:15.102Z,100892.66
2022-07-30T09:16:44.093Z,100883.16
2022-07-30T09:19:17.614Z,100882.13
2022-07-30T09:22:15.458Z,100873.47
2022-07-30T09:25:12.073Z,100892.34
2022-07-30T09:28:16.142Z,100883.47
2022-07-30T09:31:08.212Z,100885.63
2022-07-30T09:34:26.010Z,100884.19
2022-07-30T09:37:09.452Z,100871.53
2022-07-30T09:39:59.328Z,100878.63
2022-07-30T09:42:48.035Z,100875.41
2022-07-30T09:45:16.250Z,100874.16
2022-07-30T09:47:48.550Z,100876.22
2022-07-30T09:50:29.860Z,100879.47
2022-07-30T09:53:08.845Z,100870.84
2022-07-30T09:55:41.370Z,100870.06
2022-07-30T09:58:12.864Z,100863.44
2022-07-30T10:00:48.687Z,100874.53
2022-07-30T10:03:42.386Z,100875.38
2022-07-30T10:06:33.776Z,100877.47
2022-07-30T10:09:13.699Z,100879.53
2022-07-30T10:11:49.521Z,100861.81
2022-07-30T10:14:17.056Z,100865.94
2022-07-30T10:16:45.340Z,100876.25
2022-07-30T10:19:15.966Z,100861.41
2022-07-30T10:22:13.920Z,100867.16
2022-07-30T10:25:05.353Z,100864.72
2022-07-30T10:27:51.564Z,100867.59
2022-07-30T10:30:31.080Z,100865.91
2022-07-30T10:32:58.817Z,100868.34
2022-07-30T10:35:34.417Z,100868.72
2022-07-30T10:38:10.048Z,100856.44
2022-07-30T10:40:54.212Z,100856.03
2022-07-30T10:43:24.656Z,100858.13
2022-07-30T10:46:20.147Z,100861.41
2022-07-30T10:48:50.921Z,100857.28
2022-07-30T10:51:50.014Z,100862.66
2022-07-30T10:54:36.538Z,100858.97
2022-07-30T10:57:14.925Z,100855.66
2022-07-30T10:59:49.805Z,100863.88
2022-07-30T11:02:18.187Z,100850.66
2022-07-30T11:04:47.700Z,100849.41
2022-07-30T11:07:23.599Z,100847.00
2022-07-30T11:10:08.749Z,100848.63
2022-07-30T11:12:41.888Z,100852.38
2022-07-30T11:15:19.283Z,100855.69
2022-07-30T11:18:11.251Z,100858.97
2022-07-30T11:20:41.081Z,100850.75
2022-07-30T11:23:19.863Z,100848.22
2022-07-30T11:25:50.967Z,100854.44
2022-07-30T11:28:39.461Z,100862.25
2022-07-30T11:31:56.377Z,100847.00
2022-07-30T11:34:25.740Z,100854.41
2022-07-30T11:37:19.130Z,100844.13
2022-07-30T11:39:55.573Z,100855.25
2022-07-30T11:42:33.330Z,100849.47
2022-07-30T11:45:15.999Z,100839.63
2022-07-30T11:47:53.351Z,100844.91
2022-07-30T11:50:23.756Z,100844.91
2022-07-30T11:52:51.716Z,100837.53
2022-07-30T11:55:27.008Z,100841.66
2022-07-30T11:57:55.598Z,100841.66
2022-07-30T12:00:23.278Z,100835.50
2022-07-30T12:02:51.318Z,100842.47
2022-07-30T12:05:26.018Z,100843.28
2022-07-30T12:08:00.350Z,100838.75
2022-07-30T12:10:28.030Z,100841.91
2022-07-30T12:13:13.901Z,100840.25
2022-07-30T12:15:45.086Z,100829.34
2022-07-30T12:18:28.981Z,100828.47
2022-07-30T12:20:57.758Z,100822.31
2022-07-30T12:23:28.340Z,100822.88
2022-07-30T12:26:00.533Z,100831.34
2022-07-30T12:28:31.344Z,100822.66
2022-07-30T12:31:02.662Z,100818.38
2022-07-30T12:33:30.202Z,100824.19
2022-07-30T12:36:00.955Z,100821.34
2022-07-30T12:38:28.569Z,100809.97
2022-07-30T12:41:03.129Z,100811.22
2022-07-30T12:43:49.980Z,100810.81
2022-07-30T12:46:27.183Z,100806.31
2022-07-30T12:48:57.788Z,100807.13
2022-07-30T12:51:26.816Z,100807.09
2022-07-30T12:53:55.509Z,100805.88
2022-07-30T12:56:23.876Z,100801.28
2022-07-30T12:58:51.682Z,100794.66
2022-07-30T13:01:19.238Z,100796.22
2022-07-30T13:03:47.062Z,100801.16
2022-07-30T13:06:18.211Z,100792.47
2022-07-30T13:08:48.791Z,100791.63
2022-07-30T13:11:20.850Z,100796.94
2022-07-30T13:13:55.494Z,100795.25
2022-07-30T13:16:23.232Z,100779.72
2022-07-30T13:18:50.671Z,100786.28
2022-07-30T13:21:19.825Z,100779.25
2022-07-30T13:23:47.374Z,100775.56
2022-07-30T13:26:15.266Z,100766.06
2022-07-30T13:28:42.825Z,100768.53
2022-07-30T13:31:10.268Z,100762.88
2022-07-30T13:33:39.045Z,100752.50
2022-07-30T13:36:06.708Z,100750.69
2022-07-30T13:38:34.372Z,100753.47
2022-07-30T13:41:02.999Z,100752.28
2022-07-30T13:43:34.136Z,100753.28
2022-07-30T13:46:03.263Z,100745.47
2022-07-30T13:48:34.098Z,100745.28
2022-07-30T13:51:01.770Z,100749.41
2022-07-30T13:53:32.375Z,100748.91
2022-07-30T13:55:59.863Z,100741.50
2022-07-30T13:58:35.741Z,100741.13
2022-07-30T14:01:07.261Z,100742.16
2022-07-30T14:03:37.954Z,100737.09
2022-07-30T14:06:10.595Z,100735.13
2022-07-30T14:08:39.796Z,100729.94
2022-07-30T14:11:11.215Z,100734.00
2022-07-30T14:13:38.659Z,100730.91
2022-07-30T14:16:22.752Z,100729.06
2022-07-30T14:18:57.615Z,100722.25
2022-07-30T14:21:25.562Z,100723.41
2022-07-30T14:23:55.238Z,100715.69
2022-07-30T14:26:22.693Z,100724.00
2022-07-30T14:28:50.113Z,100719.97
2022-07-30T14:31:18.695Z,100724.75
2022-07-30T14:33:47.270Z,100715.94
2022-07-30T14:36:15.750Z,100709.31
2022-07-30T14:38:43.307Z,100713.50
2022-07-30T14:41:11.011Z,100720.69
2022-07-30T14:43:38.422Z,100708.44
2022-07-30T14:46:08.003Z,100703.72
2022-07-30T14:48:36.516Z,100701.38
2022-07-30T14:51:19.479Z,100708.69
2022-07-30T14:53:50.462Z,100704.91
2022-07-30T14:56:22.358Z,100697.69
2022-07-30T14:58:50.119Z,100696.25
2022-07-30T15:01:17.855Z,100702.06
2022-07-30T15:03:45.510Z,100691.25
2022-07-30T15:06:15.283Z,100695.59
2022-07-30T15:08:46.683Z,100691.88
2022-07-30T15:11:14.169Z,100689.53
2022-07-30T15:13:49.988Z,100690.75
2022-07-30T15:16:19.588Z,100682.97
2022-07-30T15:18:48.449Z,100693.09
2022-07-30T15:21:16.519Z,100691.06
2022-07-30T15:23:45.610Z,100695.28
2022-07-30T15:26:14.296Z,100683.72
2022-07-30T15:28:42.549Z,100684.34
2022-07-30T15:31:10.068Z,100675.81
2022-07-30T15:33:42.019Z,100685.72
2022-07-30T15:36:10.529Z,100683.28
2022-07-30T15:38:40.239Z,100679.09
2022-07-30T15:41:10.416Z,100677.09
2022-07-30T15:43:41.148Z,100680.47
2022-07-30T15:46:08.563Z,100669.72
2022-07-30T15:48:37.891Z,100681.06
2022-07-30T15:51:05.253Z,100682.72
2022-07-30T15:53:32.929Z,100679.31
2022-07-30T15:56:01.852Z,100675.53
2022-07-30T15:58:29.488Z,100682.41
2022-07-30T16:00:56.967Z,100678.47
2022-07-30T16:03:25.374Z,100684.47
2022-07-30T16:05:53.146Z,100690.16
2022-07-30T16:08:21.343Z,100683.25
2022-07-30T16:10:48.962Z,100688.25
2022-07-30T16:13:21.323Z,100689.44
2022-07-30T16:15:48.842Z,100693.22
2022-07-30T16:18:16.298Z,100689.47
2022-07-30T16:20:44.494Z,100692.41
2022-07-30T16:23:14.184Z,100687.16
2022-07-30T16:25:43.446Z,100688.44
2022-07-30T16:28:11.207Z,100692.88
2022-07-30T16:30:51.451Z,100695.78
2022-07-30T16:33:19.386Z,100692.50
2022-07-30T16:35:48.918Z,100687.41
2022-07-30T16:38:18.495Z,100690.44
2022-07-30T16:40:48.096Z,100698.53
2022-07-30T16:43:16.459Z,100686.63
2022-07-30T16:45:47.729Z,100694.66
2022-07-30T16:48:15.283Z,100693.00
2022-07-30T16:50:44.828Z,100687.81
2022-07-30T16:53:14.447Z,100694.81
2022-07-30T16:55:43.110Z,100703.81
2022-07-30T16:58:10.981Z,100694.41
2022-07-30T17:00:38.603Z,100693.84
2022-07-30T17:03:07.119Z,100701.06
2022-07-30T17:05:37.842Z,100696.25
2022-07-30T17:08:12.864Z,100697.09
2022-07-30T17:10:40.942Z,100693.34
2022-07-30T17:13:09.617Z,100694.75
2022-07-30T17:15:37.078Z,100692.38
2022-07-30T17:18:04.653Z,100687.72
2022-07-30T17:20:32.372Z,100693.63
2022-07-30T17:23:04.036Z,100689.31
2022-07-30T17:25:31.851Z,100681.94
2022-07-30T17:27:59.482Z,100687.25
2022-07-30T17:30:28.746Z,100692.44
2022-07-30T17:32:56.218Z,100693.56
2022-07-30T17:35:24.847Z,100692.50
2022-07-30T17:37:52.435Z,100690.41
2022-07-30T17:40:29.297Z,100697.47
2022-07-30T17:43:06.168Z,100691.06
2022-07-30T17:45:35.789Z,100687.69
2022-07-30T17:48:06.603Z,100694.56
2022-07-30T17:50:36.468Z,100699.63
2022-07-30T17:53:04.244Z,100702.81
2022-07-30T17:55:37.310Z,100699.97
2022-07-30T17:58:05.081Z,100702.56
2022-07-30T18:00:35.375Z,100696.38
2022-07-30T18:03:03.680Z,100696.59
2022-07-30T18:05:33.064Z,100698.03
2022-07-30T18:08:03.283Z,100696.06
2022-07-30T18:10:30.795Z,100702.22
2022-07-30T18:12:58.205Z,100696.69
2022-07-30T18:15:44.299Z,100702.28
2022-07-30T18:18:11.908Z,100698.31
2022-07-30T18:20:47.978Z,100695.56
2022-07-30T18:23:19.195Z,100697.03
2022-07-30T18:25:51.765Z,100707.03
2022-07-30T18:28:20.632Z,100699.50
2022-07-30T18:30:48.478Z,100694.91
2022-07-30T18:33:16.430Z,100693.97
2022-07-30T18:35:43.935Z,100696.34
2022-07-30T18:38:12.234Z,100693.84
2022-07-30T18:40:40.183Z,100702.81
2022-07-30T18:43:08.301Z,100695.63
2022-07-30T18:45:37.198Z,100692.06
2022-07-30T18:48:06.036Z,100706.69
2022-07-30T18:50:33.999Z,100692.47
2022-07-30T18:53:01.810Z,100692.59
2022-07-30T18:55:43.681Z,100688.25
2022-07-30T18:58:12.056Z,100699.66
2022-07-30T19:00:44.183Z,100695.56
2022-07-30T19:03:16.439Z,100703.03
2022-07-30T19:05:46.601Z,100699.69
2022-07-30T19:08:16.106Z,100701.31
2022-07-30T19:10:43.972Z,100696.38
2022-07-30T19:13:11.465Z,100704.09
2022-07-30T19:15:38.930Z,100705.09
2022-07-30T19:18:06.410Z,100706.97
2022-07-30T19:20:34.090Z,100704.53
2022-07-30T19:23:05.509Z,100703.63
2022-07-30T19:25:33.316Z,100705.22
2022-07-30T19:28:01.671Z,100715.88
2022-07-30T19:30:29.452Z,100714.94
2022-07-30T19:33:04.325Z,100715.03
2022-07-30T19:35:32.336Z,100722.31
2022-07-30T19:37:59.898Z,100724.97
2022-07-30T19:40:27.533Z,100723.94
2022-07-30T19:42:55.734Z,100725.38
2022-07-30T19:45:24.147Z,100722.53
2022-07-30T19:47:51.749Z,100717.78
2022-07-30T19:50:19.264Z,100726.00
2022-07-30T19:52:54.935Z,100729.88
2022-07-30T19:55:35.377Z,100734.06
2022-07-30T19:58:16.219Z,100731.81
2022-07-30T20:00:49.529Z,100737.72
2022-07-30T20:03:25.439Z,100727.53
2022-07-30T20:05:57.028Z,100731.09
2022-07-30T20:08:27.448Z,100737.03
2022-07-30T20:10:57.373Z,100733.63
2022-07-30T20:13:45.245Z,100737.41
2022-07-30T20:16:16.201Z,100732.41
2022-07-30T20:18:44.303Z,100727.91
2022-07-30T20:21:15.337Z,100733.00
2022-07-30T20:23:44.649Z,100733.63
2022-07-30T20:29:01.225Z,100736.94
2022-07-30T20:31:28.672Z,100739.41
2022-07-30T20:33:56.498Z,100732.44
2022-07-30T20:36:24.549Z,100739.78
2022-07-30T20:38:52.083Z,100739.28
2022-07-30T20:41:19.827Z,100743.44
2022-07-30T20:43:52.189Z,100734.66
2022-07-30T20:46:22.955Z,100736.69
2022-07-30T20:48:51.873Z,100737.91
2022-07-30T20:51:19.708Z,100738.25
2022-07-30T20:53:49.427Z,100729.59
2022-07-30T20:56:19.462Z,100733.25
2022-07-30T20:58:48.321Z,100735.75
2022-07-30T21:01:17.453Z,100731.31
2022-07-30T21:03:47.704Z,100728.00
2022-07-30T21:06:15.569Z,100732.44
2022-07-30T21:08:43.176Z,100723.88
2022-07-30T21:11:12.582Z,100730.81
2022-07-30T21:13:41.249Z,100730.72
2022-07-30T21:16:16.010Z,100734.19
2022-07-30T21:18:49.740Z,100729.69
2022-07-30T21:21:28.918Z,100731.06
2022-07-30T21:23:58.502Z,100733.56
2022-07-30T21:26:28.100Z,100735.09
2022-07-30T21:28:55.997Z,100724.56
2022-07-30T21:31:56.014Z,100725.91
2022-07-30T21:34:10.846Z,100720.41
2022-07-30T21:36:39.475Z,100723.78
2022-07-30T21:39:06.995Z,100721.13
2022-07-30T21:41:40.091Z,100718.47
2022-07-30T21:44:09.801Z,100720.44
2022-07-30T21:46:38.109Z,100708.63
2022-07-30T21:49:07.960Z,100704.31
2022-07-30T21:51:35.521Z,100713.13
2022-07-30T21:54:07.179Z,100711.13
2022-07-30T21:56:35.217Z,100700.66
2022-07-30T21:59:09.340Z,100704.00
2022-07-30T22:01:37.977Z,100701.81
2022-07-30T22:04:08.432Z,100701.81
2022-07-30T22:06:38.138Z,100699.13
2022-07-30T22:09:19.531Z,100697.81
2022-07-30T22:11:53.935Z,100706.97
2022-07-30T22:14:21.547Z,100695.84
2022-07-30T22:16:49.099Z,100687.66
2022-07-30T22:19:17.132Z,100688.97
2022-07-30T22:21:46.568Z,100695.94
2022-07-30T22:24:29.215Z,100690.09
2022-07-30T22:27:01.178Z,100688.00
2022-07-30T22:29:34.310Z,100689.72
2022-07-30T22:32:04.138Z,100692.84
2022-07-30T22:34:32.720Z,100695.91
2022-07-30T22:37:00.165Z,100693.38
2022-07-30T22:39:32.200Z,100691.06
2022-07-30T22:42:16.171Z,100693.31
2022-07-30T22:44:45.875Z,100696.91
2022-07-30T22:47:20.872Z,100694.50
2022-07-30T22:50:06.008Z,100690.50
2022-07-30T22:52:39.395Z,100700.97
2022-07-30T22:55:09.157Z,100695.22
2022-07-30T22:57:38.390Z,100697.69
2022-07-30T23:00:08.519Z,100706.56
2022-07-30T23:02:39.536Z,100693.00
2022-07-30T23:05:07.682Z,100702.81
2022-07-30T23:07:39.555Z,100696.22
2022-07-30T23:10:17.951Z,100711.97
2022-07-30T23:12:19.408Z,100730.50
2022-07-30T23:12:47.678Z,100722.94
2022-07-30T23:15:15.328Z,100708.31
2022-07-30T23:17:44.853Z,100708.78
2022-07-30T23:20:13.839Z,100713.66
2022-07-30T23:22:41.402Z,100716.97
2022-07-30T23:25:10.512Z,100710.19
2022-07-30T23:27:38.283Z,100721.69
2022-07-30T23:30:07.056Z,100715.97
2022-07-30T23:32:34.634Z,100713.78
2022-07-30T23:35:02.591Z,100727.50
2022-07-30T23:37:47.871Z,100721.09
2022-07-30T23:40:17.539Z,100715.19
2022-07-30T23:42:45.295Z,100715.38
2022-07-30T23:45:12.819Z,100718.56
2022-07-30T23:47:56.563Z,100716.00
2022-07-30T23:50:28.040Z,100719.81
2022-07-30T23:52:55.904Z,100716.84
2022-07-30T23:55:23.571Z,100715.66
2022-07-30T23:57:51.073Z,100715.19
